EST,Max TemperatureF,Mean TemperatureF,Min TemperatureF,Max Dew PointF,MeanDew PointF,Min DewpointF,Max Humidity, Mean Humidity, Min Humidity, Max Sea Level PressureIn, Mean Sea Level PressureIn, Min Sea Level PressureIn, Max VisibilityMiles, Mean VisibilityMiles, Min VisibilityMiles, Max Wind SpeedMPH, Mean Wind SpeedMPH, Max Gust SpeedMPH,PrecipitationIn, CloudCover, Events, WindDirDegrees
2014-1-1,-3,-12,-22,-8,-15,-29,87,77,66,30.41,30.12,29.92,10,6,1,24,8,30,T,5,Snow,314
2014-1-2,-18,-23,-28,-25,-29,-31,78,70,60,30.51,30.41,30.25,10,10,10,14,7,19,0.00,1,,332
2014-1-3,-12,-17,-23,-20,-24,-28,82,74,64,30.20,30.11,30.01,10,10,10,24,13,31,0.00,1,,323
2014-1-4,1,-9,-20,-4,-12,-25,83,79,71,30.30,30.19,30.11,10,7,1,12,5,14,0.02,6,Snow,164
2014-1-5,18,10,1,15,8,-3,92,85,80,30.28,30.21,30.13,10,8,2,10,5,13,T,8,Snow,123
2014-1-6,39,28,17,39,29,14,100,94,74,30.14,29.43,29.09,10,4,0,31,16,39,0.78,8,Fog-Rain-Snow,152
2014-1-7,21,9,-3,12,-5,-13,79,67,55,29.68,29.43,29.15,10,9,2,30,18,40,T,7,Snow,253
2014-1-8,10,4,-2,-1,-7,-12,76,62,46,30.17,29.98,29.72,10,10,10,28,16,36,0.00,2,,252
2014-1-9,8,3,-2,1,-5,-12,80,67,40,30.49,30.31,30.15,10,9,1,30,11,36,T,2,Snow,278
2014-1-10,19,9,-1,12,2,-8,83,67,52,30.43,30.29,30.15,10,10,10,12,7,16,0.00,2,,183
2014-1-11,41,29,16,41,25,11,100,93,78,30.20,29.68,29.03,10,3,0,17,10,22,0.57,7,Fog-Rain-Snow,149
2014-1-12,42,35,28,42,30,18,100,78,61,29.65,29.19,28.98,10,9,0,32,17,38,0.03,7,Fog-Rain,254
2014-1-13,34,28,21,26,20,13,79,69,60,29.93,29.82,29.66,10,10,10,22,10,28,T,4,,189
2014-1-14,37,34,31,37,35,26,100,97,79,29.76,29.67,29.56,10,3,0,16,6,21,0.19,8,Fog-Rain-Snow,168
2014-1-15,36,31,25,35,26,16,100,86,63,29.94,29.80,29.56,10,10,2,21,10,27,0.00,7,,334
2014-1-16,31,29,27,30,27,24,100,90,76,29.94,29.90,29.84,10,6,1,10,5,13,0.01,8,Snow,313
2014-1-17,31,29,27,31,28,24,100,97,88,29.92,29.85,29.78,10,3,0,13,6,17,0.07,8,Fog-Snow,178
2014-1-18,31,25,18,25,22,19,96,86,66,29.84,29.75,29.59,10,9,2,14,5,17,0.00,4,,194
2014-1-19,24,18,11,23,18,9,96,92,84,29.62,29.40,29.18,10,2,0,15,5,20,0.05,7,Fog-Snow,167
2014-1-20,19,5,-10,16,2,-16,100,79,60,29.74,29.38,29.16,10,7,0,25,10,36,0.01,6,Fog-Snow,285
2014-1-21,-2,-8,-15,-13,-16,-19,79,71,59,30.07,29.93,29.75,10,9,4,17,8,22,T,3,,279
2014-1-22,0,-8,-17,-5,-12,-20,87,79,68,30.04,29.83,29.65,10,10,9,25,14,32,0.00,3,,337
2014-1-23,3,-1,-6,-5,-8,-10,84,76,60,29.94,29.81,29.64,10,10,10,22,12,30,T,5,,312
2014-1-24,1,-5,-12,-10,-12,-16,86,73,57,30.05,29.97,29.88,10,10,4,15,9,18,0.00,2,,254
2014-1-25,20,8,-5,18,10,-12,96,84,56,29.86,29.43,29.14,10,4,0,20,11,26,0.11,7,Fog-Snow,142
2014-1-26,19,5,-10,18,0,-19,96,76,59,29.84,29.24,29.02,10,4,1,30,15,39,0.03,7,Snow,270
2014-1-27,17,3,-11,12,-2,-17,92,78,59,29.85,29.50,29.27,10,4,0,32,13,50,0.13,6,Fog-Snow,156
2014-1-28,3,-2,-8,-6,-13,-19,76,64,49,30.11,29.94,29.68,10,10,4,24,12,32,T,2,,234
2014-1-29,11,2,-8,-1,-7,-13,80,65,47,30.08,29.91,29.77,10,10,7,17,9,23,T,2,Snow,217
2014-1-30,14,7,-1,2,-2,-5,84,70,51,30.26,30.07,29.83,10,10,8,17,10,22,T,2,,225
2014-1-31,28,19,9,15,10,2,81,67,55,30.06,29.87,29.77,10,10,6,26,12,35,T,5,Snow,217